Time;durP1;ratioP1;P1;durP2;ratioP2;P2;SDS_P1;SDS_P2;PMS_P1;PMS_P2;Temp;Humidity;BMP_temperature;BMP_pressure;BME280_temperature;BME280_humidity;BME280_pressure;Samples;Min_cycle;Max_cycle;Signal;HPM_P1;HPM_P2
2021/09/15 00:00:06;;;;;;;1085.03;990.88;;;;;;;11.77;63.93;93741.41;5091793;28;20429;-46
2021/09/15 00:02:31;;;;;;;1057.60;964.63;;;;;;;11.76;63.89;93757.25;5090112;28;20035;-47
2021/09/15 00:04:57;;;;;;;1084.78;988.83;;;;;;;11.64;64.29;93747.06;5091344;28;20016;-46
2021/09/15 00:07:22;;;;;;;1068.32;977.13;;;;;;;11.70;64.55;93751.16;5090812;28;20031;-48
2021/09/15 00:09:48;;;;;;;1075.25;983.35;;;;;;;11.65;65.04;93749.25;5091198;28;20012;-46
2021/09/15 00:12:13;;;;;;;1057.75;970.15;;;;;;;11.63;64.60;93751.84;5091613;28;20024;-46
2021/09/15 00:14:39;;;;;;;1055.15;966.60;;;;;;;11.61;65.01;93748.88;5091289;28;20028;-47
2021/09/15 00:17:04;;;;;;;1039.50;951.08;;;;;;;11.55;64.96;93751.06;5109334;28;20062;-46
2021/09/15 00:19:29;;;;;;;1064.15;974.90;;;;;;;11.52;64.34;93754.22;5111851;28;20018;-46
2021/09/15 00:21:55;;;;;;;1053.20;963.88;;;;;;;11.57;63.95;93753.28;5111787;28;20512;-48
2021/09/15 00:24:20;;;;;;;1055.30;965.33;;;;;;;11.56;63.97;93752.56;5111412;28;20019;-48
2021/09/15 00:26:46;;;;;;;1043.97;958.13;;;;;;;11.55;64.39;93756.59;5106450;28;20020;-47
2021/09/15 00:29:11;;;;;;;1043.70;956.42;;;;;;;11.38;65.11;93739.78;5091232;28;20409;-46
2021/09/15 00:31:37;;;;;;;1037.78;952.53;;;;;;;11.46;65.02;93751.59;5091234;28;20092;-46
2021/09/15 00:34:02;;;;;;;1064.65;973.83;;;;;;;11.48;64.99;93749.03;5090910;28;20020;-48
2021/09/15 00:36:28;;;;;;;1042.60;955.75;;;;;;;11.42;64.60;93751.22;5091085;28;20016;-46
2021/09/15 00:38:53;;;;;;;1037.38;949.85;;;;;;;11.34;64.09;93761.50;5089617;28;20421;-46
2021/09/15 00:41:19;;;;;;;1016.15;932.20;;;;;;;11.29;64.98;93759.63;5091055;28;20497;-46
2021/09/15 00:44:07;;;;;;;1034.72;948.72;;;;;;;11.27;64.91;93762.19;5090717;28;20024;-48
2021/09/15 00:46:34;;;;;;;1057.38;969.75;;;;;;;11.23;64.96;93761.81;5090962;28;20024;-48
2021/09/15 00:48:59;;;;;;;1014.67;933.53;;;;;;;11.09;66.19;93763.94;5090541;28;20557;-46
2021/09/15 00:51:26;;;;;;;1028.03;942.97;;;;;;;10.97;66.01;93751.00;5090986;28;20032;-47
2021/09/15 00:53:51;;;;;;;1040.22;955.80;;;;;;;11.18;65.86;93766.22;5090920;28;20030;-47
2021/09/15 00:56:18;;;;;;;1014.47;930.92;;;;;;;11.16;65.57;93756.97;5089372;28;20028;-46
2021/09/15 00:58:43;;;;;;;1014.22;929.55;;;;;;;10.88;65.90;93715.56;5090862;28;20031;-46
2021/09/15 01:01:09;;;;;;;1008.17;926.38;;;;;;;11.19;65.32;93764.19;5090760;28;20019;-47
2021/09/15 01:03:34;;;;;;;1024.80;942.13;;;;;;;11.12;65.39;93762.13;5090536;28;20035;-48
2021/09/15 01:06:00;;;;;;;1030.75;948.35;;;;;;;11.13;65.10;93764.34;5090360;28;20115;-47
2021/09/15 01:08:26;;;;;;;1033.93;952.40;;;;;;;11.08;65.26;93765.25;5090317;28;20020;-46
2021/09/15 01:10:52;;;;;;;1052.60;967.33;;;;;;;11.04;66.05;93764.13;5089591;28;20122;-48
2021/09/15 01:13:17;;;;;;;1047.90;964.58;;;;;;;11.01;66.03;93756.91;5089472;28;20047;-46
2021/09/15 01:15:42;;;;;;;1014.92;931.92;;;;;;;11.09;65.93;93768.72;5090359;28;20035;-46
2021/09/15 01:18:15;;;;;;;1003.20;923.97;;;;;;;11.06;65.92;93758.78;5090100;28;20055;-46
2021/09/15 01:20:41;;;;;;;1017.38;937.63;;;;;;;11.02;65.90;93759.13;5090381;28;20450;-47
2021/09/15 01:23:06;;;;;;;1031.63;947.95;;;;;;;10.99;66.11;93760.22;5095817;28;20031;-48
2021/09/15 01:25:32;;;;;;;1027.35;945.80;;;;;;;11.03;65.91;93762.63;5110643;28;20069;-46
2021/09/15 01:27:57;;;;;;;1023.60;943.03;;;;;;;10.97;66.43;93756.50;5110792;28;20031;-46
2021/09/15 01:30:23;;;;;;;1053.57;968.20;;;;;;;10.85;66.45;93761.59;5110551;28;20047;-46
2021/09/15 01:32:49;;;;;;;1051.03;968.35;;;;;;;10.84;66.12;93764.91;5110813;28;20024;-46
2021/09/15 01:35:14;;;;;;;1055.03;969.65;;;;;;;10.89;65.64;93762.00;5110788;28;20028;-45
2021/09/15 01:37:39;;;;;;;1012.50;932.45;;;;;;;10.90;65.40;93766.25;5110701;28;20046;-47
2021/09/15 01:40:05;;;;;;;1028.55;946.05;;;;;;;10.86;65.16;93765.84;5110801;28;20408;-45
2021/09/15 01:42:31;;;;;;;1005.22;924.58;;;;;;;10.82;65.48;93767.47;5110403;28;20493;-46
2021/09/15 01:44:56;;;;;;;1053.07;970.15;;;;;;;10.74;65.89;93767.44;5110394;28;20039;-48
2021/09/15 01:47:22;;;;;;;1003.58;923.38;;;;;;;10.77;65.93;93771.13;5110365;28;20038;-47
2021/09/15 01:49:49;;;;;;;1049.03;964.42;;;;;;;10.78;65.25;93778.13;5109434;28;20084;-47
2021/09/15 01:52:15;;;;;;;1016.90;934.30;;;;;;;10.70;65.56;93778.06;5110402;28;20020;-46
2021/09/15 01:54:41;;;;;;;1045.22;962.28;;;;;;;10.58;65.00;93771.38;5110334;28;20023;-46
2021/09/15 01:57:07;;;;;;;1033.15;951.60;;;;;;;10.54;64.93;93776.50;5110308;28;20028;-47
2021/09/15 01:59:32;;;;;;;1052.32;967.33;;;;;;;10.33;65.91;93759.22;5110322;28;20036;-45
2021/09/15 02:01:58;;;;;;;1031.80;949.08;;;;;;;10.43;65.91;93772.00;5110516;28;20055;-46
2021/09/15 02:04:23;;;;;;;1028.32;945.30;;;;;;;10.40;66.59;93770.31;5110285;28;20039;-47
2021/09/15 02:06:49;;;;;;;1009.75;931.58;;;;;;;10.36;66.23;93766.41;5110160;28;20076;-46
2021/09/15 02:09:15;;;;;;;1049.00;965.47;;;;;;;10.18;67.19;93772.88;5110442;28;20031;-46
2021/09/15 02:11:41;;;;;;;1012.40;930.33;;;;;;;10.23;67.03;93769.22;5110144;28;20027;-48
2021/09/15 02:14:06;;;;;;;1054.43;970.25;;;;;;;10.29;66.77;93762.28;5110139;28;20111;-47
2021/09/15 02:16:32;;;;;;;1035.93;952.95;;;;;;;10.36;66.65;93766.41;5109621;28;20027;-47
2021/09/15 02:18:58;;;;;;;1052.18;967.50;;;;;;;10.32;66.72;93766.75;5107657;28;20110;-47
2021/09/15 02:21:23;;;;;;;1036.38;953.42;;;;;;;10.22;67.63;93774.00;5090105;28;20063;-47
2021/09/15 02:23:49;;;;;;;1033.78;950.20;;;;;;;10.30;66.87;93771.31;5089631;28;20063;-46
2021/09/15 02:26:15;;;;;;;1037.35;953.80;;;;;;;10.23;66.42;93752.66;5089562;28;20036;-47
2021/09/15 02:28:41;;;;;;;1063.47;976.88;;;;;;;10.20;66.20;93768.28;5089893;28;20081;-46
2021/09/15 02:31:06;;;;;;;1022.67;939.03;;;;;;;10.14;66.27;93772.44;5090402;28;20455;-46
2021/09/15 02:33:33;;;;;;;1058.75;970.67;;;;;;;10.15;66.24;93766.41;5093290;28;20459;-46
2021/09/15 02:35:58;;;;;;;1043.07;954.58;;;;;;;10.21;66.17;93769.78;5093089;28;20039;-47
2021/09/15 02:38:24;;;;;;;1043.05;957.58;;;;;;;10.30;66.17;93776.84;5093435;28;20020;-48
2021/09/15 02:40:49;;;;;;;1035.70;952.50;;;;;;;10.17;66.55;93771.38;5093421;28;20477;-46
2021/09/15 02:43:15;;;;;;;1070.45;982.30;;;;;;;10.20;66.86;93779.31;5093043;28;20034;-47
2021/09/15 02:45:40;;;;;;;1026.45;943.08;;;;;;;10.22;67.01;93779.53;5093358;28;20035;-47
2021/09/15 02:48:06;;;;;;;1037.03;953.55;;;;;;;10.23;66.55;93772.72;5092848;28;20529;-45
2021/09/15 02:50:32;;;;;;;1018.78;937.10;;;;;;;10.28;65.81;93779.41;5092948;28;20058;-47
2021/09/15 02:52:57;;;;;;;1032.03;950.67;;;;;;;10.28;65.75;93774.63;5093188;28;20024;-48
2021/09/15 02:55:24;;;;;;;1020.97;939.65;;;;;;;10.23;65.58;93783.78;5092824;28;20024;-46
2021/09/15 02:57:49;;;;;;;998.22;920.15;;;;;;;10.20;65.24;93776.56;5093050;28;20028;-47
2021/09/15 03:00:15;;;;;;;1025.88;944.45;;;;;;;10.25;64.64;93783.97;5092998;28;20467;-47
2021/09/15 03:02:41;;;;;;;1016.25;934.75;;;;;;;10.17;65.10;93774.91;5092661;28;20020;-46
2021/09/15 03:05:07;;;;;;;1031.32;946.92;;;;;;;10.08;65.29;93777.34;5092639;28;20035;-47
2021/09/15 03:07:32;;;;;;;1003.30;922.63;;;;;;;10.00;65.48;93773.78;5092828;28;20036;-46
2021/09/15 03:09:57;;;;;;;1024.20;943.80;;;;;;;9.87;66.41;93785.59;5092820;28;20024;-45
2021/09/15 03:12:23;;;;;;;1032.82;948.20;;;;;;;9.75;67.02;93781.59;5092788;28;20020;-46
2021/09/15 03:14:48;;;;;;;1029.93;946.28;;;;;;;9.88;67.00;93779.53;5092688;28;20039;-45
2021/09/15 03:17:14;;;;;;;1037.18;953.63;;;;;;;9.94;66.28;93782.16;5111082;28;20116;-47
2021/09/15 03:19:39;;;;;;;1001.72;920.33;;;;;;;9.94;65.91;93787.69;5112995;28;20024;-47
2021/09/15 03:22:05;;;;;;;1052.22;967.85;;;;;;;9.91;66.44;93788.78;5112657;28;20031;-45
2021/09/15 03:24:30;;;;;;;1019.85;935.80;;;;;;;9.90;66.11;93792.78;5112908;28;20024;-45
2021/09/15 03:26:56;;;;;;;1039.70;954.50;;;;;;;9.88;67.00;93784.31;5112568;28;20504;-46
2021/09/15 03:29:21;;;;;;;1038.70;953.97;;;;;;;9.76;67.45;93796.88;5112516;28;20057;-45
2021/09/15 03:31:46;;;;;;;1025.70;944.03;;;;;;;9.79;67.07;93796.53;5112746;28;20023;-46
2021/09/15 03:34:12;;;;;;;1019.30;936.55;;;;;;;9.75;67.31;93798.16;5112785;28;20080;-45
2021/09/15 03:36:37;;;;;;;1030.05;948.05;;;;;;;9.66;67.34;93793.06;5112384;28;20113;-46
2021/09/15 03:39:04;;;;;;;1023.85;941.35;;;;;;;9.70;67.39;93796.28;5112353;28;20031;-45
2021/09/15 03:41:30;;;;;;;1028.22;945.17;;;;;;;9.77;67.27;93798.34;5112320;28;20416;-45
2021/09/15 03:43:55;;;;;;;1018.50;935.05;;;;;;;9.79;66.88;93793.78;5112187;28;20027;-45
2021/09/15 03:46:21;;;;;;;1009.58;929.13;;;;;;;9.76;66.79;93805.91;5112285;28;20544;-45
2021/09/15 03:48:46;;;;;;;1032.97;949.25;;;;;;;9.76;67.05;93794.88;5112086;28;20531;-45
2021/09/15 03:51:12;;;;;;;1035.55;950.95;;;;;;;9.74;66.62;93804.94;5112166;28;20104;-46
2021/09/15 03:53:38;;;;;;;1029.40;947.28;;;;;;;9.69;66.09;93800.28;5112141;27;20020;-47
2021/09/15 03:56:03;;;;;;;1054.95;967.38;;;;;;;9.65;66.90;93799.88;5112057;28;20015;-47
2021/09/15 03:58:29;;;;;;;1036.18;949.42;;;;;;;9.59;68.19;93802.03;5112265;28;20117;-46
2021/09/15 04:00:54;;;;;;;1018.75;935.75;;;;;;;9.47;68.05;93804.25;5111898;28;20028;-45
2021/09/15 04:03:20;;;;;;;1035.97;952.42;;;;;;;9.42;67.90;93785.09;5111870;28;20065;-46
2021/09/15 04:05:46;;;;;;;1013.38;933.88;;;;;;;9.54;67.90;93809.13;5112167;28;20470;-47
2021/09/15 04:08:11;;;;;;;1027.80;945.85;;;;;;;9.58;67.71;93811.56;5111863;28;20019;-46
2021/09/15 04:10:37;;;;;;;1018.05;935.95;;;;;;;9.54;67.07;93814.66;5111731;28;20408;-45
2021/09/15 04:13:02;;;;;;;1002.15;922.60;;;;;;;9.40;67.61;93787.66;5096017;28;20023;-45
2021/09/15 04:15:28;;;;;;;1025.47;942.28;;;;;;;9.48;68.35;93810.53;5090938;28;20024;-46
2021/09/15 04:17:54;;;;;;;1028.93;945.85;;;;;;;9.37;68.69;93808.00;5091106;28;20085;-48
2021/09/15 04:20:20;;;;;;;1026.88;943.92;;;;;;;9.47;68.59;93809.03;5091142;28;20051;-45
2021/09/15 04:22:47;;;;;;;1031.68;948.97;;;;;;;9.58;67.98;93815.06;5091157;28;20028;-44
2021/09/15 04:33:24;;;;;;;1029.65;945.78;;;;;;;9.46;65.91;93822.09;5091127;28;20027;-44
2021/09/15 04:35:49;;;;;;;1028.35;946.40;;;;;;;9.43;66.18;93823.13;5090893;28;20024;-45
2021/09/15 04:38:15;;;;;;;993.78;914.97;;;;;;;9.44;66.86;93823.88;5090913;28;20019;-45
2021/09/15 04:40:40;;;;;;;1002.05;921.70;;;;;;;9.34;67.91;93822.81;5091125;28;20024;-45
2021/09/15 04:43:05;;;;;;;1032.30;948.88;;;;;;;9.37;68.43;93819.75;5091063;28;20023;-47
2021/09/15 04:45:31;;;;;;;1028.32;946.58;;;;;;;9.50;67.71;93819.75;5091076;28;20032;-48
2021/09/15 04:47:56;;;;;;;993.03;912.80;;;;;;;9.58;67.79;93831.59;5090692;28;20019;-47
2021/09/15 04:50:22;;;;;;;1022.75;936.30;;;;;;;9.57;67.27;93835.63;5090702;28;20020;-45
2021/09/15 04:52:47;;;;;;;1032.45;949.13;;;;;;;9.58;67.64;93839.88;5090957;28;20020;-45
2021/09/15 04:55:13;;;;;;;1026.03;942.53;;;;;;;9.48;67.49;93840.84;5090411;28;20073;-45
2021/09/15 04:57:38;;;;;;;1035.00;946.75;;;;;;;9.53;67.88;93840.72;5090631;28;20035;-46
2021/09/15 05:00:05;;;;;;;1021.72;939.70;;;;;;;9.71;67.32;93839.84;5090890;28;20028;-44
2021/09/15 05:02:30;;;;;;;1046.13;961.33;;;;;;;9.81;66.82;93840.16;5090728;28;20020;-48
2021/09/15 05:04:56;;;;;;;1015.72;935.90;;;;;;;9.90;67.37;93847.94;5090765;28;20503;-46
2021/09/15 05:07:21;;;;;;;1037.57;951.05;;;;;;;9.93;67.31;93847.63;5090430;28;20409;-45
2021/09/15 05:09:47;;;;;;;1026.97;942.70;;;;;;;9.99;67.69;93844.75;5109969;28;20080;-46
2021/09/15 05:12:12;;;;;;;1049.55;962.35;;;;;;;10.03;67.56;93850.66;5111079;28;20023;-45
2021/09/15 05:14:38;;;;;;;1047.15;959.55;;;;;;;10.10;68.27;93850.03;5110997;28;20028;-46
2021/09/15 05:17:03;;;;;;;1039.80;955.00;;;;;;;10.14;68.15;93850.44;5091994;28;20040;-47
2021/09/15 05:19:29;;;;;;;1048.55;963.13;;;;;;;10.21;68.00;93855.31;5090569;28;20016;-46
2021/09/15 05:21:54;;;;;;;1040.50;955.30;;;;;;;10.25;68.47;93846.69;5090604;28;20435;-44
2021/09/15 05:24:19;;;;;;;1053.75;966.45;;;;;;;10.39;68.49;93854.41;5090213;28;20406;-45
2021/09/15 05:26:45;;;;;;;1055.45;970.65;;;;;;;10.52;67.71;93848.06;5090256;28;20078;-48
2021/09/15 05:29:10;;;;;;;1035.47;950.70;;;;;;;10.69;68.12;93851.16;5090153;28;20028;-46
2021/09/15 05:31:36;;;;;;;1049.50;959.88;;;;;;;10.55;68.01;93847.72;5090517;28;20032;-46
2021/09/15 05:34:01;;;;;;;1037.30;952.45;;;;;;;10.56;68.10;93848.47;5090425;28;20070;-46
2021/09/15 05:36:27;;;;;;;1042.07;954.80;;;;;;;10.58;68.43;93843.91;5090137;28;20020;-46
2021/09/15 05:38:52;;;;;;;1048.47;961.63;;;;;;;10.76;67.87;93846.97;5090410;28;20067;-47
2021/09/15 05:41:18;;;;;;;1053.07;965.15;;;;;;;10.79;67.96;93835.59;5090158;28;20201;-47
2021/09/15 05:43:43;;;;;;;1067.90;979.28;;;;;;;11.01;67.84;93846.06;5090105;28;20028;-44
2021/09/15 05:46:09;;;;;;;1043.10;956.40;;;;;;;11.13;67.78;93841.72;5090112;28;20039;-45
2021/09/15 05:48:34;;;;;;;1032.25;945.20;;;;;;;11.20;67.91;93845.81;5090021;28;20028;-47
2021/09/15 05:51:00;;;;;;;1051.60;963.72;;;;;;;11.33;68.16;93842.94;5089989;28;20027;-46
2021/09/15 05:53:25;;;;;;;1053.00;962.47;;;;;;;11.47;68.74;93838.78;5090030;28;20027;-45
2021/09/15 05:55:52;;;;;;;1047.40;956.63;;;;;;;11.61;67.66;93842.91;5090213;28;20020;-45
2021/09/15 05:58:18;;;;;;;1032.68;943.65;;;;;;;11.78;67.61;93848.00;5090297;28;20023;-45
2021/09/15 06:00:44;;;;;;;1049.20;956.85;;;;;;;11.94;67.53;93844.00;5089926;28;20023;-45
2021/09/15 06:03:09;;;;;;;1049.95;955.58;;;;;;;12.07;67.69;93841.84;5089885;28;20070;-46
2021/09/15 06:05:35;;;;;;;1077.35;981.35;;;;;;;12.16;67.40;93843.34;5104578;28;20035;-49
2021/09/15 06:08:00;;;;;;;1051.55;957.33;;;;;;;12.26;68.14;93846.31;5113723;28;20032;-47
2021/09/15 06:10:26;;;;;;;1065.65;966.90;;;;;;;12.34;68.09;93844.31;5114128;28;20031;-46
2021/09/15 06:12:51;;;;;;;1052.40;954.88;;;;;;;12.49;68.13;93847.84;5114005;28;20026;-46
2021/09/15 06:15:17;;;;;;;1070.82;969.80;;;;;;;12.66;67.90;93845.28;5110524;28;20020;-46
2021/09/15 06:17:42;;;;;;;1060.13;959.72;;;;;;;12.87;67.74;93842.31;5093462;28;20051;-45
2021/09/15 06:20:08;;;;;;;1087.05;981.28;;;;;;;13.12;67.14;93843.28;5093551;28;20028;-46
2021/09/15 06:22:33;;;;;;;1052.57;954.42;;;;;;;13.40;66.36;93845.09;5093809;28;20040;-47
2021/09/15 06:24:59;;;;;;;1088.90;983.30;;;;;;;13.66;65.59;93844.66;5093734;28;20060;-46
2021/09/15 06:27:25;;;;;;;1103.35;995.95;;;;;;;13.90;64.87;93846.06;5093487;28;20040;-49
2021/09/15 06:29:50;;;;;;;1083.53;977.97;;;;;;;14.14;64.51;93835.00;5093609;28;20028;-48
2021/09/15 06:32:20;;;;;;;1082.32;978.70;;;;;;;14.34;63.58;93831.22;5093612;28;20020;-45
2021/09/15 06:34:46;;;;;;;1066.03;964.67;;;;;;;14.49;63.05;93824.13;5093370;28;20565;-47
2021/09/15 06:37:14;;;;;;;1057.32;955.80;;;;;;;14.72;62.33;93830.25;5093056;28;20036;-46
2021/09/15 06:39:39;;;;;;;1038.90;935.42;;;;;;;15.10;61.55;93831.44;5093471;28;20024;-46
2021/09/15 06:42:05;;;;;;;1011.30;905.20;;;;;;;15.59;61.16;93832.69;5093433;28;20569;-46
2021/09/15 06:44:30;;;;;;;1091.80;970.25;;;;;;;16.07;59.73;93828.22;5093299;28;20408;-49
2021/09/15 06:46:56;;;;;;;1070.30;951.53;;;;;;;16.51;58.49;93831.75;5093091;28;20028;-47
2021/09/15 06:49:21;;;;;;;1036.10;843.60;;;;;;;16.96;56.20;93833.13;5093187;28;20400;-48
2021/09/15 06:51:47;;;;;;;994.47;776.25;;;;;;;17.31;55.72;93834.41;5092895;28;20039;-46
2021/09/15 06:54:12;;;;;;;1163.22;835.05;;;;;;;17.73;54.00;93828.50;5092876;28;20077;-47
2021/09/15 06:56:37;;;;;;;1135.18;901.45;;;;;;;18.20;53.02;93832.59;5092829;28;20048;-48
2021/09/15 06:59:03;;;;;;;1280.75;997.05;;;;;;;18.70;51.16;93830.63;5092750;28;20020;-47
2021/09/15 07:01:28;;;;;;;1494.32;999.90;;;;;;;19.38;48.02;93833.91;5104831;28;20048;-48
2021/09/15 07:03:54;;;;;;;1543.05;999.90;;;;;;;20.24;46.58;93833.31;5111509;28;20020;-48
2021/09/15 07:06:19;;;;;;;1481.45;999.90;;;;;;;21.50;43.61;93831.38;5113330;28;20035;-47
2021/09/15 07:08:45;;;;;;;1457.88;999.90;;;;;;;23.03;40.30;93826.06;5112953;28;20424;-48
2021/09/15 07:11:10;;;;;;;1377.60;999.90;;;;;;;24.58;37.05;93828.44;5112988;28;20434;-46
2021/09/15 07:13:35;;;;;;;1156.88;999.90;;;;;;;26.17;31.79;93825.13;5113203;28;20409;-47
2021/09/15 07:16:01;;;;;;;1116.57;999.90;;;;;;;27.77;29.43;93826.44;5103054;28;20070;-48
2021/09/15 07:18:27;;;;;;;1099.65;998.67;;;;;;;29.10;27.01;93826.03;5091905;28;20437;-48
2021/09/15 07:20:53;;;;;;;1044.32;960.15;;;;;;;30.40;25.39;93839.06;5092639;28;20089;-48
2021/09/15 07:23:18;;;;;;;1031.32;952.97;;;;;;;31.51;24.52;93842.53;5092622;28;20481;-51
2021/09/15 07:25:44;;;;;;;947.17;879.30;;;;;;;32.53;22.84;93832.47;5092270;28;20024;-51
2021/09/15 07:28:09;;;;;;;902.33;837.25;;;;;;;32.87;21.73;93826.63;5090797;28;20027;-51
2021/09/15 07:30:35;;;;;;;913.30;846.30;;;;;;;33.80;21.31;93839.50;5092251;28;20024;-48
2021/09/15 07:33:00;;;;;;;975.97;904.42;;;;;;;33.37;22.17;93832.47;5092355;28;20020;-48
2021/09/15 07:35:25;;;;;;;905.97;841.25;;;;;;;33.68;20.98;93834.34;5092146;28;20019;-51
2021/09/15 07:37:51;;;;;;;893.20;831.72;;;;;;;34.55;20.00;93832.56;5091939;28;20031;-51
2021/09/15 07:40:16;;;;;;;835.58;779.10;;;;;;;35.38;18.75;93828.28;5091980;28;20024;-50
2021/09/15 07:42:42;;;;;;;744.83;698.25;;;;;;;36.15;17.87;93838.06;5091898;28;20035;-48
2021/09/15 07:45:08;;;;;;;717.72;673.17;;;;;;;36.82;17.27;93822.47;5092198;28;20028;-49
2021/09/15 07:47:34;;;;;;;694.85;651.88;;;;;;;37.05;16.90;93826.84;5092016;28;20034;-48
2021/09/15 07:49:59;;;;;;;689.83;648.10;;;;;;;37.48;16.63;93833.31;5092048;28;20043;-51
2021/09/15 07:52:25;;;;;;;664.83;624.80;;;;;;;38.12;16.54;93829.56;5092053;28;20040;-49
2021/09/15 07:54:50;;;;;;;655.78;615.88;;;;;;;38.69;16.07;93824.28;5092009;28;20024;-49
2021/09/15 07:57:16;;;;;;;621.17;584.05;;;;;;;38.83;15.07;93821.31;5100757;28;20023;-49
2021/09/15 07:59:43;;;;;;;615.83;578.38;;;;;;;38.98;15.28;93827.72;5112285;28;20028;-48
2021/09/15 08:02:09;;;;;;;595.03;559.60;;;;;;;39.51;15.06;93831.63;5112202;28;20023;-53
2021/09/15 08:04:34;;;;;;;574.50;540.20;;;;;;;39.94;14.44;93826.16;5110658;28;20432;-49
2021/09/15 08:07:00;;;;;;;475.08;447.90;;;;;;;39.64;15.20;93832.97;5111733;27;20031;-50
2021/09/15 08:09:25;;;;;;;441.23;417.25;;;;;;;38.91;15.07;93820.53;5111721;27;20020;-49
2021/09/15 08:11:51;;;;;;;424.77;401.20;;;;;;;39.22;14.81;93821.78;5112034;28;20027;-50
2021/09/15 08:14:17;;;;;;;407.00;384.60;;;;;;;39.18;14.88;93821.81;5111995;28;20072;-50
2021/09/15 08:16:43;;;;;;;395.77;374.67;;;;;;;39.56;14.45;93823.66;5095029;28;20048;-50
2021/09/15 08:19:08;;;;;;;404.48;382.27;;;;;;;40.08;14.37;93829.66;5091247;28;20575;-52
2021/09/15 08:21:34;;;;;;;390.33;369.27;;;;;;;40.04;14.38;93832.59;5091554;28;20031;-51
2021/09/15 08:24:00;;;;;;;371.25;351.30;;;;;;;40.36;13.85;93822.06;5091155;28;20032;-50
2021/09/15 08:26:26;;;;;;;381.73;360.55;;;;;;;40.39;13.95;93823.47;5091113;28;20028;-50
2021/09/15 08:28:51;;;;;;;378.83;358.13;;;;;;;39.94;14.60;93821.09;5090411;28;20031;-49
2021/09/15 08:31:16;;;;;;;342.63;324.63;;;;;;;39.64;13.98;93818.53;5091375;28;20408;-49
2021/09/15 08:33:42;;;;;;;342.67;324.50;;;;;;;39.73;14.39;93816.97;5090995;28;20024;-51
2021/09/15 08:36:08;;;;;;;331.88;314.50;;;;;;;37.73;15.26;93811.66;5090930;28;20031;-49
2021/09/15 08:38:33;;;;;;;293.20;277.95;;;;;;;36.43;16.53;93809.44;5091164;28;20020;-48
2021/09/15 08:40:58;;;;;;;281.23;266.55;;;;;;;36.87;17.09;93809.53;5090864;28;20471;-51
2021/09/15 08:43:24;;;;;;;249.63;235.50;;;;;;;37.09;16.72;93803.06;5090915;28;20236;-51
2021/09/15 08:45:49;;;;;;;233.55;221.57;;;;;;;38.29;16.24;93813.66;5090714;28;20016;-50
2021/09/15 08:48:18;;;;;;;245.38;233.02;;;;;;;39.26;15.19;93808.03;5090986;28;20036;-50
2021/09/15 08:50:45;;;;;;;231.00;219.13;;;;;;;39.01;14.30;93809.63;5090669;28;20024;-50
2021/09/15 08:53:11;;;;;;;253.00;239.98;;;;;;;39.18;14.54;93796.53;5095854;28;20085;-52
2021/09/15 08:55:37;;;;;;;277.48;263.17;;;;;;;37.72;15.37;93803.72;5111007;28;20664;-48
2021/09/15 08:58:02;;;;;;;252.40;239.73;;;;;;;36.90;16.09;93805.25;5110844;28;20057;-50
2021/09/15 09:00:28;;;;;;;255.80;243.13;;;;;;;36.08;16.53;93807.88;5111269;28;20102;-52
2021/09/15 09:02:53;;;;;;;206.57;195.70;;;;;;;37.19;15.85;93803.06;5111174;28;20411;-49
2021/09/15 09:05:19;;;;;;;198.73;188.93;;;;;;;37.66;16.01;93803.75;5109635;28;20417;-49
2021/09/15 09:07:44;;;;;;;199.75;189.75;;;;;;;38.32;15.14;93794.91;5110625;28;20027;-49
2021/09/15 09:10:13;;;;;;;201.45;191.50;;;;;;;39.18;14.00;93792.94;5110718;28;20061;-50
2021/09/15 09:12:41;;;;;;;195.18;185.15;;;;;;;38.02;14.10;93792.13;5111118;28;20081;-51
2021/09/15 09:15:12;;;;;;;238.98;226.80;;;;;;;37.13;15.74;93795.16;5108371;28;20496;-51
2021/09/15 09:17:38;;;;;;;257.27;244.13;;;;;;;36.70;16.71;93793.69;5090273;28;20082;-47
2021/09/15 09:20:22;;;;;;;235.05;221.55;;;;;;;37.95;15.65;93790.72;5090357;28;20032;-49
2021/09/15 09:23:11;;;;;;;207.02;195.68;;;;;;;37.77;14.08;93787.88;5090582;28;20023;-50
2021/09/15 09:25:41;;;;;;;200.10;190.25;;;;;;;37.07;15.41;93786.53;5090368;28;20031;-47
2021/09/15 09:28:20;;;;;;;199.27;188.90;;;;;;;35.54;16.37;93786.03;5090498;28;20038;-52
2021/09/15 09:30:48;;;;;;;172.65;163.63;;;;;;;35.07;17.02;93787.16;5090291;28;20032;-49
2021/09/15 09:33:14;;;;;;;173.65;165.00;;;;;;;36.44;16.92;93785.72;5090208;28;20085;-50
2021/09/15 09:36:01;;;;;;;146.35;139.10;;;;;;;38.14;15.80;93774.75;5090149;28;20455;-49
2021/09/15 09:38:32;;;;;;;163.80;155.75;;;;;;;38.41;14.36;93775.38;5090550;28;20054;-50
2021/09/15 09:41:00;;;;;;;196.55;186.88;;;;;;;38.83;14.83;93768.63;5092515;28;20020;-49
2021/09/15 09:43:27;;;;;;;214.27;203.38;;;;;;;38.80;13.92;93767.94;5094306;28;20028;-49
2021/09/15 09:45:53;;;;;;;212.82;201.82;;;;;;;38.89;14.25;93760.66;5094189;28;20028;-49
2021/09/15 09:48:35;;;;;;;235.25;223.30;;;;;;;38.21;14.24;93770.41;5094096;28;20024;-49
2021/09/15 09:51:04;;;;;;;277.80;263.75;;;;;;;37.51;15.41;93764.91;5112352;28;20026;-49
2021/09/15 09:53:30;;;;;;;241.02;229.00;;;;;;;37.90;14.98;93763.34;5114433;28;20024;-50
2021/09/15 09:55:57;;;;;;;278.45;264.13;;;;;;;37.49;16.18;93756.25;5114728;28;20499;-49
2021/09/15 09:58:24;;;;;;;269.15;255.30;;;;;;;36.81;16.09;93757.00;5114178;28;20098;-50
2021/09/15 10:00:57;;;;;;;255.38;242.57;;;;;;;37.25;16.39;93759.88;5114642;28;20024;-48
2021/09/15 10:03:23;;;;;;;229.48;217.73;;;;;;;38.09;14.93;93752.44;5114315;28;20098;-48
2021/09/15 10:05:50;;;;;;;224.57;212.75;;;;;;;38.37;15.24;93752.31;5114502;28;20019;-51
2021/09/15 10:08:20;;;;;;;238.57;226.40;;;;;;;38.93;14.28;93751.22;5114155;28;20574;-50
2021/09/15 10:10:48;;;;;;;231.95;217.27;;;;;;;39.11;13.57;93753.97;5114431;28;20028;-50
2021/09/15 10:13:15;;;;;;;232.18;214.95;;;;;;;39.77;13.53;93755.50;5114103;28;20495;-51
2021/09/15 10:15:49;;;;;;;241.57;229.00;;;;;;;40.58;13.53;93750.16;5113584;28;20496;-52
2021/09/15 10:18:16;;;;;;;226.07;214.70;;;;;;;40.16;12.61;93752.88;5113816;27;20073;-50
2021/09/15 10:20:46;;;;;;;235.65;223.80;;;;;;;39.96;12.98;93742.28;5113053;28;20045;-50
2021/09/15 10:23:40;;;;;;;244.38;231.07;;;;;;;39.59;13.62;93755.72;5114169;28;20028;-48
2021/09/15 10:26:24;;;;;;;225.35;213.63;;;;;;;38.55;13.88;93743.56;5113872;28;20023;-51
2021/09/15 10:29:15;;;;;;;205.38;195.18;;;;;;;37.78;14.56;93743.19;5113670;28;20031;-49
2021/09/15 10:32:00;;;;;;;210.32;199.68;;;;;;;36.68;15.28;93749.78;5113745;27;20027;-51
2021/09/15 10:34:41;;;;;;;203.93;193.57;;;;;;;35.57;15.63;93747.28;5113409;28;20035;-51
2021/09/15 10:37:26;;;;;;;244.23;231.55;;;;;;;34.69;17.26;93738.06;5113726;28;20084;-49
2021/09/15 10:39:52;;;;;;;182.00;172.85;;;;;;;33.85;17.18;93740.75;5113387;28;20024;-49
2021/09/15 10:42:35;;;;;;;173.18;164.13;;;;;;;33.92;17.21;93733.66;5113850;28;20073;-48
2021/09/15 10:45:13;;;;;;;124.32;117.95;;;;;;;34.96;16.47;93737.53;5112635;28;20390;-48
2021/09/15 10:47:46;;;;;;;131.10;124.03;;;;;;;34.64;16.97;93740.16;5092772;28;20028;-51
2021/09/15 10:50:35;;;;;;;145.07;137.65;;;;;;;33.38;17.98;93736.56;5093321;28;20031;-51
2021/09/15 10:53:03;;;;;;;;;;;;;;;32.24;18.93;93733.34;5092627;28;20058;-48
2021/09/15 10:55:37;;;;;;;156.27;148.23;;;;;;;31.37;20.24;93734.47;5092949;28;20389;-49
2021/09/15 10:58:30;;;;;;;178.60;169.68;;;;;;;30.49;21.65;93732.44;5092854;28;20509;-50
2021/09/15 11:01:04;;;;;;;240.55;227.95;;;;;;;29.65;22.91;93728.09;5091026;28;20085;-47
2021/09/15 11:03:35;;;;;;;271.70;257.23;;;;;;;29.41;23.79;93727.41;5092716;28;20034;-50
2021/09/15 11:06:06;;;;;;;269.95;255.80;;;;;;;28.83;24.42;93726.38;5092615;28;20024;-48